Wetterdaten: aktuell Donnerstag, 20.06.2024 18:15
Datum Zeit Temp. I. Temp. A. Feuchte I. Feuchte A. Luftdruck Regen Wind Richtung Richtung Sonnenschein ET UV Solar Taupunkt Windchill Windben Empfang
20.06.2024 18:15 23,60 C 19,70 C 52 % 75 % 1017,4 hPa 0,0 l/m 0,1 km/h (0 Bft) O-NO 71 0 min 0,000 mm 0,0 UV-I 75 W/m 15,1 C 19,7 C 3,2 km/h (1 Bft) 100,00 %
20.06.2024 18:00 23,70 C 20,40 C 52 % 73 % 1017,5 hPa 0,0 l/m 0,4 km/h (0 Bft) O-NO 76 0 min 0,127 mm 0,6 UV-I 111 W/m 15,4 C 20,4 C 4,8 km/h (1 Bft) 99,44 %
20.06.2024 17:45 23,70 C 20,40 C 52 % 73 % 1017,5 hPa 0,0 l/m 0,6 km/h (0 Bft) O-NO 60 0 min 0,000 mm 1,1 UV-I 203 W/m 15,4 C 20,4 C 6,4 km/h (2 Bft) 99,71 %
20.06.2024 17:30 23,80 C 20,90 C 52 % 72 % 1017,8 hPa 0,0 l/m 0,2 km/h (0 Bft) O-NO 65 0 min 0,000 mm 1,3 UV-I 241 W/m 15,7 C 20,9 C 3,2 km/h (1 Bft) 100,00 %
20.06.2024 17:15 23,80 C 20,80 C 52 % 73 % 1017,6 hPa 0,0 l/m 0,3 km/h (0 Bft) O-NO 74 0 min 0,000 mm 1,3 UV-I 252 W/m 15,8 C 20,8 C 4,8 km/h (1 Bft) 97,76 %
20.06.2024 17:00 23,70 C 21,30 C 52 % 70 % 1017,9 hPa 0,0 l/m 1,1 km/h (1 Bft) S-SO 159 0 min 0,229 mm 1,7 UV-I 301 W/m 15,6 C 21,3 C 8,0 km/h (2 Bft) 97,38 %
20.06.2024 16:45 23,70 C 21,10 C 53 % 72 % 1018,0 hPa 0,0 l/m 0,8 km/h (0 Bft) O-NO 69 15 min 0,000 mm 2,0 UV-I 360 W/m 15,8 C 21,1 C 8,0 km/h (2 Bft) 97,46 %
20.06.2024 16:30 23,60 C 21,00 C 53 % 70 % 1018,3 hPa 0,0 l/m 1,1 km/h (1 Bft) W 262 0 min 0,000 mm 2,2 UV-I 371 W/m 15,3 C 21,0 C 11,3 km/h (2 Bft) 99,44 %
20.06.2024 16:15 23,70 C 21,40 C 53 % 68 % 1018,4 hPa 0,0 l/m 3,0 km/h (1 Bft) N-NO 15 15 min 0,000 mm 2,8 UV-I 492 W/m 15,2 C 21,4 C 11,3 km/h (2 Bft) 100,00 %
20.06.2024 16:00 23,70 C 20,90 C 53 % 72 % 1018,4 hPa 0,0 l/m 1,8 km/h (1 Bft) O-SO 118 0 min 0,304 mm 2,5 UV-I 391 W/m 15,7 C 20,9 C 12,9 km/h (3 Bft) 99,72 %
20.06.2024 15:45 23,70 C 20,40 C 53 % 71 % 1018,8 hPa 0,0 l/m 2,2 km/h (1 Bft) O-SO 117 0 min 0,000 mm 2,8 UV-I 403 W/m 15,0 C 20,4 C 11,3 km/h (2 Bft) 99,72 %
20.06.2024 15:30 23,70 C 21,20 C 53 % 70 % 1019,2 hPa 0,0 l/m 2,7 km/h (1 Bft) N-NO 25 15 min 0,000 mm 3,6 UV-I 524 W/m 15,5 C 21,2 C 12,9 km/h (3 Bft) 99,71 %
20.06.2024 15:15 23,70 C 21,10 C 53 % 69 % 1019,0 hPa 0,0 l/m 4,3 km/h (1 Bft) N-NO 25 15 min 0,000 mm 4,0 UV-I 611 W/m 15,2 C 21,1 C 14,5 km/h (3 Bft) 100,00 %
20.06.2024 15:00 23,70 C 20,40 C 53 % 72 % 1019,4 hPa 0,0 l/m 2,9 km/h (1 Bft) NO 38 15 min 0,229 mm 3,8 UV-I 574 W/m 15,2 C 20,4 C 11,3 km/h (2 Bft) 100,00 %
20.06.2024 14:45 23,60 C 20,10 C 53 % 74 % 1019,4 hPa 0,0 l/m 3,3 km/h (1 Bft) O-NO 71 0 min 0,000 mm 3,0 UV-I 425 W/m 15,3 C 20,1 C 12,9 km/h (3 Bft) 99,13 %
20.06.2024 14:30 23,70 C 19,60 C 53 % 76 % 1019,7 hPa 0,0 l/m 2,0 km/h (1 Bft) O 101 0 min 0,000 mm 2,3 UV-I 317 W/m 15,2 C 19,6 C 12,9 km/h (3 Bft) 97,46 %
20.06.2024 14:15 23,60 C 19,20 C 53 % 77 % 1019,8 hPa 0,0 l/m 0,9 km/h (0 Bft) NO 39 0 min 0,000 mm 1,8 UV-I 233 W/m 15,1 C 19,2 C 6,4 km/h (2 Bft) 97,75 %
20.06.2024 14:00 23,50 C 19,20 C 53 % 74 % 1020,0 hPa 0,0 l/m 1,1 km/h (1 Bft) N-NO 19 0 min 0,229 mm 1,3 UV-I 168 W/m 14,4 C 19,2 C 6,4 km/h (2 Bft) 98,31 %
20.06.2024 13:45 23,60 C 18,70 C 53 % 77 % 1020,2 hPa 0,0 l/m 0,5 km/h (0 Bft) O-NO 62 0 min 0,000 mm 1,7 UV-I 210 W/m 14,6 C 18,7 C 4,8 km/h (1 Bft) 100,00 %
20.06.2024 13:30 23,50 C 19,40 C 53 % 70 % 1020,2 hPa 0,0 l/m 1,9 km/h (1 Bft) N-NW 341 0 min 0,000 mm 3,5 UV-I 454 W/m 13,8 C 19,4 C 12,9 km/h (3 Bft) 100,00 %
20.06.2024 13:15 23,40 C 20,90 C 54 % 71 % 1020,2 hPa 0,0 l/m 4,2 km/h (1 Bft) N-NO 24 15 min 0,000 mm 5,7 UV-I 834 W/m 15,4 C 20,9 C 14,5 km/h (3 Bft) 99,72 %
20.06.2024 13:00 23,30 C 19,70 C 54 % 75 % 1020,2 hPa 0,0 l/m 0,7 km/h (0 Bft) NO 51 0 min 0,330 mm 3,1 UV-I 370 W/m 15,1 C 19,7 C 4,8 km/h (1 Bft) 100,00 %
20.06.2024 12:45 23,20 C 19,70 C 54 % 72 % 1020,1 hPa 0,0 l/m 1,7 km/h (1 Bft) N-NO 19 15 min 0,000 mm 4,6 UV-I 595 W/m 14,5 C 19,7 C 11,3 km/h (2 Bft) 99,72 %
20.06.2024 12:30 23,10 C 19,10 C 54 % 72 % 1020,1 hPa 0,0 l/m 2,1 km/h (1 Bft) SW 227 15 min 0,000 mm 4,4 UV-I 542 W/m 13,9 C 19,1 C 9,7 km/h (2 Bft) 99,71 %
20.06.2024 12:15 23,10 C 19,40 C 54 % 71 % 1020,2 hPa 0,0 l/m 2,2 km/h (1 Bft) O 99 15 min 0,000 mm 4,8 UV-I 675 W/m 14,0 C 19,4 C 12,9 km/h (3 Bft) 100,00 %
20.06.2024 12:00 22,90 C 19,40 C 54 % 74 % 1020,3 hPa 0,0 l/m 3,6 km/h (1 Bft) O 84 15 min 0,381 mm 5,3 UV-I 772 W/m 14,6 C 19,4 C 16,1 km/h (3 Bft) 97,75 %
20.06.2024 11:45 22,90 C 18,90 C 55 % 77 % 1020,3 hPa 0,0 l/m 2,5 km/h (1 Bft) O-NO 68 15 min 0,000 mm 5,0 UV-I 735 W/m 14,8 C 18,9 C 16,1 km/h (3 Bft) 97,67 %
20.06.2024 11:30 22,80 C 17,70 C 55 % 79 % 1020,4 hPa 0,0 l/m 3,0 km/h (1 Bft) NO 46 15 min 0,000 mm 5,0 UV-I 792 W/m 14,0 C 17,7 C 16,1 km/h (3 Bft) 98,31 %
20.06.2024 11:15 22,80 C 17,20 C 55 % 85 % 1020,3 hPa 0,0 l/m 2,2 km/h (1 Bft) S-SO 154 15 min 0,000 mm 3,7 UV-I 550 W/m 14,7 C 17,2 C 11,3 km/h (2 Bft) 100,00 %
20.06.2024 11:00 22,80 C 16,70 C 56 % 86 % 1020,6 hPa 0,0 l/m 3,2 km/h (1 Bft) O 88 15 min 0,254 mm 3,8 UV-I 579 W/m 14,3 C 16,7 C 14,5 km/h (3 Bft) 100,00 %
20.06.2024 10:45 22,70 C 16,70 C 56 % 93 % 1021,2 hPa 0,0 l/m 0,8 km/h (0 Bft) NO 34 15 min 0,000 mm 3,5 UV-I 608 W/m 15,6 C 16,7 C 8,0 km/h (2 Bft) 100,00 %
20.06.2024 10:30 22,60 C 15,70 C 56 % 97 % 1021,2 hPa 0,0 l/m 1,1 km/h (1 Bft) N-NO 23 15 min 0,000 mm 2,7 UV-I 407 W/m 15,2 C 15,7 C 11,3 km/h (2 Bft) 100,00 %
20.06.2024 10:15 22,60 C 15,00 C 56 % 99 % 1021,6 hPa 0,0 l/m 0,2 km/h (0 Bft) NO 39 0 min 0,000 mm 1,9 UV-I 303 W/m 14,8 C 15,0 C 6,4 km/h (2 Bft) 99,71 %
20.06.2024 10:00 22,50 C 14,60 C 56 % 99 % 1021,4 hPa 0,0 l/m 0,1 km/h (0 Bft) NO 47 0 min 0,178 mm 2,2 UV-I 319 W/m 14,4 C 14,6 C 4,8 km/h (1 Bft) 99,44 %
20.06.2024 09:45 22,50 C 14,10 C 55 % 99 % 1021,0 hPa 0,0 l/m 1,7 km/h (1 Bft) N-NO 23 15 min 0,000 mm 2,0 UV-I 402 W/m 13,9 C 14,1 C 8,0 km/h (2 Bft) 98,87 %
20.06.2024 09:30 22,50 C 13,80 C 54 % 99 % 1021,1 hPa 0,0 l/m 0,4 km/h (0 Bft) O 86 0 min 0,000 mm 2,0 UV-I 339 W/m 13,6 C 13,8 C 8,0 km/h (2 Bft) 97,96 %
20.06.2024 09:15 22,40 C 13,60 C 54 % 100 % 1021,2 hPa 0,0 l/m 0,7 km/h (0 Bft) O 79 0 min 0,000 mm 1,5 UV-I 321 W/m 13,6 C 13,6 C 9,7 km/h (2 Bft) 97,46 %
20.06.2024 09:00 22,40 C 13,00 C 53 % 99 % 1021,5 hPa 0,0 l/m 0,1 km/h (0 Bft) O-NO 67 0 min 0,076 mm 0,9 UV-I 189 W/m 12,8 C 13,0 C 3,2 km/h (1 Bft) 98,87 %
20.06.2024 08:45 22,40 C 12,70 C 52 % 99 % 1021,6 hPa 0,0 l/m 0,5 km/h (0 Bft) O-NO 67 0 min 0,000 mm 0,7 UV-I 158 W/m 12,5 C 12,7 C 4,8 km/h (1 Bft) 100,00 %
20.06.2024 08:30 22,40 C 12,30 C 52 % 99 % 1021,7 hPa 0,0 l/m 0,4 km/h (0 Bft) NO 56 0 min 0,000 mm 0,3 UV-I 105 W/m 12,1 C 12,3 C 6,4 km/h (2 Bft) 100,00 %
20.06.2024 08:15 22,30 C 12,40 C 52 % 99 % 1021,6 hPa 0,0 l/m 0,2 km/h (0 Bft) SO 137 0 min 0,000 mm 0,2 UV-I 136 W/m 12,2 C 12,4 C 4,8 km/h (1 Bft) 100,00 %
20.06.2024 08:00 22,30 C 12,00 C 52 % 99 % 1021,6 hPa 0,0 l/m 0,5 km/h (0 Bft) O 92 0 min 0,051 mm 0,0 UV-I 88 W/m 11,8 C 12,0 C 4,8 km/h (1 Bft) 99,42 %
20.06.2024 07:45 22,30 C 12,10 C 52 % 99 % 1021,4 hPa 0,0 l/m 1,1 km/h (1 Bft) N-NO 31 0 min 0,000 mm 0,0 UV-I 102 W/m 11,9 C 12,1 C 8,0 km/h (2 Bft) 99,72 %
20.06.2024 07:30 22,30 C 12,20 C 52 % 99 % 1021,7 hPa 0,0 l/m 0,2 km/h (0 Bft) N-NW 342 0 min 0,000 mm 0,0 UV-I 81 W/m 12,0 C 12,2 C 3,2 km/h (1 Bft) 100,00 %
20.06.2024 07:15 22,30 C 11,90 C 52 % 99 % 1022,0 hPa 0,0 l/m 0,0 km/h (0 Bft) W-SW 241 0 min 0,000 mm 0,0 UV-I 59 W/m 11,7 C 11,9 C 0,0 km/h (0 Bft) 99,42 %
20.06.2024 07:00 22,30 C 11,70 C 52 % 99 % 1022,0 hPa 0,0 l/m 0,1 km/h (0 Bft) W-SW 241 0 min 0,025 mm 0,0 UV-I 53 W/m 11,5 C 11,7 C 3,2 km/h (1 Bft) 97,13 %
20.06.2024 06:45 22,30 C 11,70 C 52 % 99 % 1021,9 hPa 0,0 l/m 0,0 km/h (0 Bft) W-SW 241 0 min 0,000 mm 0,0 UV-I 47 W/m 11,5 C 11,7 C 0,0 km/h (0 Bft) 97,75 %
20.06.2024 06:30 22,30 C 11,80 C 52 % 99 % 1021,7 hPa 0,0 l/m 0,0 km/h (0 Bft) W-SW 241 0 min 0,000 mm 0,0 UV-I 49 W/m 11,6 C 11,8 C 1,6 km/h (1 Bft) 97,46 %
20.06.2024 06:15 22,30 C 11,80 C 52 % 99 % 1021,7 hPa 0,0 l/m 0,0 km/h (0 Bft) S-SW 204 0 min 0,000 mm 0,0 UV-I 40 W/m 11,6 C 11,8 C 1,6 km/h (1 Bft) 100,00 %
20.06.2024 06:00 22,30 C 11,60 C 52 % 99 % 1021,5 hPa 0,0 l/m 0,0 km/h (0 Bft) S-SW 204 0 min 0,000 mm 0,0 UV-I 27 W/m 11,4 C 11,6 C 0,0 km/h (0 Bft) 99,71 %
20.06.2024 05:45 22,30 C 11,60 C 53 % 99 % 1021,5 hPa 0,0 l/m 0,0 km/h (0 Bft) S-SW 204 0 min 0,000 mm 0,0 UV-I 19 W/m 11,4 C 11,6 C 1,6 km/h (1 Bft) 99,44 %
20.06.2024 05:30 22,30 C 11,50 C 53 % 99 % 1021,4 hPa 0,0 l/m 0,0 km/h (0 Bft) S-SW 204 0 min 0,000 mm 0,0 UV-I 13 W/m 11,3 C 11,5 C 1,6 km/h (1 Bft) 100,00 %
20.06.2024 05:15 22,30 C 11,50 C 53 % 99 % 1021,0 hPa 0,0 l/m 0,0 km/h (0 Bft) S-SW 204 0 min 0,000 mm 0,0 UV-I 6 W/m 11,3 C 11,5 C 0,0 km/h (0 Bft) 99,71 %
20.06.2024 05:00 22,40 C 11,50 C 53 % 99 % 1021,3 hPa 0,0 l/m 0,0 km/h (0 Bft) S-SW 204 0 min 0,000 mm 0,0 UV-I 0 W/m 11,3 C 11,5 C 1,6 km/h (1 Bft) 99,72 %
20.06.2024 04:45 22,40 C 11,50 C 53 % 99 % 1021,2 hPa 0,0 l/m 0,0 km/h (0 Bft) SW 223 0 min 0,000 mm 0,0 UV-I 0 W/m 11,3 C 11,5 C 0,0 km/h (0 Bft) 100,00 %
20.06.2024 04:30 22,40 C 11,60 C 53 % 99 % 1020,9 hPa 0,0 l/m 0,0 km/h (0 Bft) SW 223 0 min 0,000 mm 0,0 UV-I 0 W/m 11,4 C 11,6 C 1,6 km/h (1 Bft) 98,60 %
20.06.2024 04:15 22,40 C 11,60 C 53 % 99 % 1020,7 hPa 0,0 l/m 0,0 km/h (0 Bft) SW 226 0 min 0,000 mm 0,0 UV-I 0 W/m 11,4 C 11,6 C 0,0 km/h (0 Bft) 97,60 %
20.06.2024 04:00 22,40 C 11,60 C 53 % 99 % 1021,2 hPa 0,0 l/m 0,2 km/h (0 Bft) SW 226 0 min 0,000 mm 0,0 UV-I 0 W/m 11,4 C 11,6 C 4,8 km/h (1 Bft) 97,77 %
20.06.2024 03:45 22,50 C 11,50 C 53 % 99 % 1021,2 hPa 0,0 l/m 0,4 km/h (0 Bft) SW 229 0 min 0,000 mm 0,0 UV-I 0 W/m 11,3 C 11,5 C 4,8 km/h (1 Bft) 99,15 %
20.06.2024 03:30 22,50 C 11,50 C 53 % 99 % 1021,0 hPa 0,0 l/m 0,0 km/h (0 Bft) N-NO 20 0 min 0,000 mm 0,0 UV-I 0 W/m 11,3 C 11,5 C 0,0 km/h (0 Bft) 99,71 %
20.06.2024 03:15 22,60 C 11,20 C 53 % 99 % 1020,9 hPa 0,0 l/m 0,0 km/h (0 Bft) N-NO 20 0 min 0,000 mm 0,0 UV-I 0 W/m 11,0 C 11,2 C 0,0 km/h (0 Bft) 100,00 %
20.06.2024 03:00 22,60 C 11,20 C 53 % 99 % 1020,7 hPa 0,0 l/m 0,0 km/h (0 Bft) N-NO 20 0 min 0,000 mm 0,0 UV-I 0 W/m 11,0 C 11,2 C 1,6 km/h (1 Bft) 100,00 %
20.06.2024 02:45 22,60 C 11,30 C 53 % 99 % 1020,5 hPa 0,0 l/m 0,0 km/h (0 Bft) N-NO 20 0 min 0,000 mm 0,0 UV-I 0 W/m 11,1 C 11,3 C 0,0 km/h (0 Bft) 100,00 %
20.06.2024 02:30 22,70 C 11,20 C 53 % 99 % 1020,5 hPa 0,0 l/m 0,0 km/h (0 Bft) N-NO 20 0 min 0,000 mm 0,0 UV-I 0 W/m 11,0 C 11,2 C 0,0 km/h (0 Bft) 100,00 %
20.06.2024 02:15 22,70 C 11,40 C 53 % 99 % 1020,6 hPa 0,0 l/m 0,0 km/h (0 Bft) N-NO 20 0 min 0,000 mm 0,0 UV-I 0 W/m 11,2 C 11,4 C 0,0 km/h (0 Bft) 100,00 %
20.06.2024 02:00 22,70 C 11,70 C 53 % 99 % 1020,5 hPa 0,0 l/m 0,0 km/h (0 Bft) N-NO 20 0 min 0,000 mm 0,0 UV-I 0 W/m 11,5 C 11,7 C 0,0 km/h (0 Bft) 99,72 %
20.06.2024 01:45 22,70 C 11,70 C 53 % 98 % 1020,5 hPa 0,0 l/m 0,0 km/h (0 Bft) N-NO 20 0 min 0,000 mm 0,0 UV-I 0 W/m 11,4 C 11,7 C 0,0 km/h (0 Bft) 97,46 %
20.06.2024 01:30 22,80 C 11,50 C 53 % 99 % 1020,4 hPa 0,0 l/m 0,0 km/h (0 Bft) N-NO 20 0 min 0,000 mm 0,0 UV-I 0 W/m 11,3 C 11,5 C 0,0 km/h (0 Bft) 97,67 %
20.06.2024 01:15 22,80 C 11,70 C 53 % 98 % 1020,4 hPa 0,0 l/m 0,0 km/h (0 Bft) N-NO 20 0 min 0,000 mm 0,0 UV-I 0 W/m 11,4 C 11,7 C 0,0 km/h (0 Bft) 97,46 %
20.06.2024 01:00 22,90 C 11,60 C 53 % 98 % 1020,3 hPa 0,0 l/m 0,0 km/h (0 Bft) N-NO 20 0 min 0,000 mm 0,0 UV-I 0 W/m 11,3 C 11,6 C 1,6 km/h (1 Bft) 98,55 %
20.06.2024 00:45 22,90 C 11,70 C 53 % 98 % 1020,5 hPa 0,0 l/m 0,0 km/h (0 Bft) N-NO 20 0 min 0,000 mm 0,0 UV-I 0 W/m 11,4 C 11,7 C 1,6 km/h (1 Bft) 100,00 %
20.06.2024 00:30 22,90 C 11,60 C 53 % 98 % 1020,2 hPa 0,0 l/m 0,0 km/h (0 Bft) N-NO 20 0 min 0,000 mm 0,0 UV-I 0 W/m 11,3 C 11,6 C 0,0 km/h (0 Bft) 99,71 %
20.06.2024 00:15 23,00 C 11,70 C 53 % 98 % 1020,2 hPa 0,0 l/m 0,0 km/h (0 Bft) N-NO 20 0 min 0,000 mm 0,0 UV-I 0 W/m 11,4 C 11,7 C 0,0 km/h (0 Bft) 99,72 %
20.06.2024 00:00 23,10 C 11,80 C 53 % 98 % 1020,2 hPa 0,0 l/m 0,0 km/h (0 Bft) N-NO 20 0 min 0,000 mm 0,0 UV-I 0 W/m 11,5 C 11,8 C 0,0 km/h (0 Bft) 100,00 %
19.06.2024 23:45 23,10 C 11,80 C 53 % 98 % 1020,2 hPa 0,0 l/m 0,0 km/h (0 Bft) N-NO 20 0 min 0,000 mm 0,0 UV-I 0 W/m 11,5 C 11,8 C 0,0 km/h (0 Bft) 99,71 %
19.06.2024 23:30 23,10 C 11,80 C 53 % 98 % 1020,2 hPa 0,0 l/m 0,0 km/h (0 Bft) N-NO 20 0 min 0,000 mm 0,0 UV-I 0 W/m 11,5 C 11,8 C 0,0 km/h (0 Bft) 100,00 %
19.06.2024 23:15 23,20 C 11,90 C 53 % 98 % 1020,3 hPa 0,0 l/m 0,0 km/h (0 Bft) N-NO 20 0 min 0,000 mm 0,0 UV-I 0 W/m 11,6 C 11,9 C 0,0 km/h (0 Bft) 100,00 %
19.06.2024 23:00 23,20 C 12,10 C 53 % 98 % 1020,1 hPa 0,0 l/m 0,0 km/h (0 Bft) N-NO 20 0 min 0,000 mm 0,0 UV-I 0 W/m 11,8 C 12,1 C 0,0 km/h (0 Bft) 97,77 %
19.06.2024 22:45 23,20 C 12,30 C 53 % 98 % 1020,0 hPa 0,0 l/m 0,0 km/h (0 Bft) N-NO 20 0 min 0,000 mm 0,0 UV-I 0 W/m 12,0 C 12,3 C 0,0 km/h (0 Bft) 97,67 %
19.06.2024 22:30 23,30 C 12,80 C 53 % 98 % 1019,9 hPa 0,0 l/m 0,0 km/h (0 Bft) N-NO 21 0 min 0,000 mm 0,0 UV-I 0 W/m 12,5 C 12,8 C 0,0 km/h (0 Bft) 97,77 %
19.06.2024 22:15 23,30 C 12,90 C 53 % 98 % 1019,9 hPa 0,0 l/m 0,0 km/h (0 Bft) N-NO 20 0 min 0,000 mm 0,0 UV-I 0 W/m 12,6 C 12,9 C 0,0 km/h (0 Bft) 99,44 %
19.06.2024 22:00 23,30 C 13,10 C 53 % 98 % 1019,7 hPa 0,0 l/m 0,0 km/h (0 Bft) N-NO 20 0 min 0,000 mm 0,0 UV-I 0 W/m 12,8 C 13,1 C 0,0 km/h (0 Bft) 100,00 %
19.06.2024 21:45 23,40 C 13,30 C 53 % 98 % 1019,4 hPa 0,0 l/m 0,0 km/h (0 Bft) N-NO 20 0 min 0,000 mm 0,0 UV-I 0 W/m 13,0 C 13,3 C 0,0 km/h (0 Bft) 99,44 %
19.06.2024 21:30 23,40 C 13,30 C 53 % 98 % 1019,2 hPa 0,0 l/m 0,0 km/h (0 Bft) N-NO 21 0 min 0,000 mm 0,0 UV-I 7 W/m 13,0 C 13,3 C 0,0 km/h (0 Bft) 100,00 %
19.06.2024 21:15 23,40 C 13,30 C 53 % 98 % 1019,0 hPa 0,0 l/m 0,0 km/h (0 Bft) N-NO 20 15 min 0,000 mm 0,0 UV-I 13 W/m 13,0 C 13,3 C 0,0 km/h (0 Bft) 100,00 %
19.06.2024 21:00 23,50 C 13,40 C 53 % 97 % 1018,8 hPa 0,0 l/m 0,0 km/h (0 Bft) N-NO 20 0 min 0,000 mm 0,0 UV-I 19 W/m 12,9 C 13,4 C 1,6 km/h (1 Bft) 100,00 %
19.06.2024 20:45 23,50 C 13,70 C 53 % 98 % 1018,8 hPa 0,0 l/m 0,0 km/h (0 Bft) N-NO 20 0 min 0,000 mm 0,0 UV-I 13 W/m 13,4 C 13,7 C 0,0 km/h (0 Bft) 99,71 %
19.06.2024 20:30 23,50 C 13,60 C 53 % 97 % 1018,7 hPa 0,0 l/m 0,1 km/h (0 Bft) N-NO 20 0 min 0,000 mm 0,0 UV-I 10 W/m 13,1 C 13,6 C 3,2 km/h (1 Bft) 99,15 %
19.06.2024 20:15 23,60 C 13,80 C 53 % 97 % 1018,7 hPa 0,0 l/m 0,3 km/h (0 Bft) N-NO 21 0 min 0,000 mm 0,0 UV-I 17 W/m 13,3 C 13,8 C 6,4 km/h (2 Bft) 97,67 %
19.06.2024 20:00 23,60 C 13,90 C 53 % 98 % 1018,4 hPa 0,0 l/m 0,0 km/h (0 Bft) N-NO 21 0 min 0,025 mm 0,0 UV-I 37 W/m 13,6 C 13,9 C 1,6 km/h (1 Bft) 97,18 %
19.06.2024 19:45 23,70 C 13,90 C 53 % 98 % 1018,2 hPa 0,0 l/m 0,0 km/h (0 Bft) N-NO 15 0 min 0,000 mm 0,0 UV-I 57 W/m 13,6 C 13,9 C 1,6 km/h (1 Bft) 98,55 %
19.06.2024 19:30 23,70 C 13,80 C 53 % 97 % 1018,2 hPa 0,0 l/m 0,8 km/h (0 Bft) N-NO 19 0 min 0,000 mm 0,0 UV-I 47 W/m 13,3 C 13,8 C 8,0 km/h (2 Bft) 100,00 %
19.06.2024 19:15 23,70 C 13,60 C 53 % 97 % 1017,8 hPa 0,2 l/m 0,5 km/h (0 Bft) N-NO 20 0 min 0,000 mm 0,0 UV-I 70 W/m 13,1 C 13,6 C 6,4 km/h (2 Bft) 99,72 %
19.06.2024 19:00 23,70 C 13,70 C 53 % 97 % 1017,6 hPa 0,0 l/m 0,8 km/h (0 Bft) N-NO 29 0 min 0,026 mm 0,0 UV-I 31 W/m 13,2 C 13,7 C 8,0 km/h (2 Bft) 100,00 %
_ Min-Zeit 05:15 02:30 06:00 16:15 18:15 - 19:45 - - - - - - 02:30 02:30 20:45 07:00
Minimum _ 22,30 C 11,20 C 52 % 68 % 1017,4 hPa - 0,0 km/h (0 Bft) - - - - - - 11,0 C 11,2 C 0,0 km/h (0 Bft) 97,13 %
_ Max-Zeit 17:15 16:15 10:00 09:15 07:00 19:15 15:15 - - 21:15 12:00 13:15 13:15 16:45 16:15 11:30 19:00
Maximum _ 23,80 C 21,40 C 56 % 100 % 1022,0 hPa 0,2 l/m 4,3 km/h
N-NO (1 Bft)
- - 15 min 0,381 mm 5,7 UV-I 834 W/m 15,8 C 21,4 C 16,1 km/h
W (3 Bft)
100,00 %
Durchschnitt _ 23,06 C 14,76 C 53 % 91 % 1019,9 hPa #0,2 l/m 0,7 km/h (0 Bft) N-NO - #4:15 h #2,413 mm 2,7 UV-I 321 W/m 13,1 C 14,8 C 5,1 km/h (1 Bft) 99,25 %